createdAt,value
2023-01-29T00:01:59.783Z,75.46
2023-01-29T00:06:07.154Z,75.63
2023-01-29T00:10:11.769Z,75.46
2023-01-29T00:14:14.899Z,75.74
2023-01-29T00:18:19.312Z,75.61
2023-01-29T00:22:22.376Z,75.65
2023-01-29T00:26:25.477Z,75.33
2023-01-29T00:30:28.552Z,75.05
2023-01-29T00:34:32.932Z,75.05
2023-01-29T00:38:36.899Z,75.24
2023-01-29T00:42:57.186Z,74.77
2023-01-29T00:47:00.427Z,74.92
2023-01-29T00:51:05.162Z,74.93
2023-01-29T00:55:10.189Z,75.12
2023-01-29T00:59:13.975Z,74.68
2023-01-29T01:03:17.500Z,74.49
2023-01-29T01:07:22.494Z,74.34
2023-01-29T01:11:26.737Z,74.62
2023-01-29T01:15:31.922Z,74.50
2023-01-29T01:19:35.155Z,73.97
2023-01-29T01:23:39.561Z,74.39
2023-01-29T01:27:42.825Z,74.01
2023-01-29T01:31:45.934Z,73.82
2023-01-29T01:35:49.040Z,73.59
2023-01-29T01:39:58.524Z,73.70
2023-01-29T01:44:03.868Z,73.39
2023-01-29T01:48:13.010Z,73.29
2023-01-29T01:52:17.532Z,73.01
2023-01-29T01:56:28.665Z,72.96
2023-01-29T02:00:31.850Z,72.77
2023-01-29T02:04:52.504Z,72.62
2023-01-29T02:09:17.347Z,72.46
2023-01-29T02:13:22.381Z,72.89
2023-01-29T02:17:25.517Z,72.74
2023-01-29T02:21:48.514Z,72.51
2023-01-29T02:26:11.473Z,72.61
2023-01-29T02:30:22.147Z,72.51
2023-01-29T02:34:55.136Z,72.84
2023-01-29T02:39:08.831Z,72.73
2023-01-29T02:43:25.098Z,72.45
2023-01-29T02:47:36.356Z,72.11
2023-01-29T02:51:45.265Z,72.57
2023-01-29T02:55:52.814Z,72.63
2023-01-29T03:00:00.725Z,71.85
2023-01-29T03:04:10.553Z,71.64
2023-01-29T03:08:22.571Z,71.21
2023-01-29T03:12:34.044Z,71.45
2023-01-29T03:16:44.940Z,71.37
2023-01-29T03:20:53.988Z,71.69
2023-01-29T03:25:19.106Z,71.80
2023-01-29T03:29:41.786Z,72.25
2023-01-29T03:33:49.875Z,71.77
2023-01-29T03:37:56.935Z,71.98
2023-01-29T03:42:06.115Z,71.21
2023-01-29T03:46:19.068Z,71.41
2023-01-29T03:50:37.014Z,71.06
2023-01-29T03:55:01.602Z,69.50
2023-01-29T03:59:18.310Z,70.23
2023-01-29T04:03:44.686Z,69.55
2023-01-29T04:07:53.530Z,69.45
2023-01-29T04:12:06.547Z,69.61
2023-01-29T04:16:15.641Z,69.60
2023-01-29T04:20:54.224Z,69.74
2023-01-29T04:25:02.463Z,69.31
2023-01-29T04:29:21.669Z,69.57
2023-01-29T04:33:38.260Z,69.70
2023-01-29T04:37:46.212Z,69.45
2023-01-29T04:41:55.049Z,69.41
2023-01-29T04:46:14.290Z,69.69
2023-01-29T04:50:22.216Z,69.52
2023-01-29T04:54:34.857Z,69.74
2023-01-29T04:58:42.671Z,70.02
2023-01-29T05:02:48.244Z,70.35
2023-01-29T05:06:52.324Z,70.10
2023-01-29T05:10:58.403Z,70.52
2023-01-29T05:15:05.274Z,70.08
2023-01-29T05:19:10.564Z,69.56
2023-01-29T05:23:18.152Z,69.40
2023-01-29T05:27:46.728Z,69.60
2023-01-29T05:31:49.835Z,68.98
2023-01-29T05:35:55.374Z,69.30
2023-01-29T05:39:58.450Z,68.72
2023-01-29T05:44:01.467Z,68.99
2023-01-29T05:48:04.714Z,68.81
2023-01-29T05:52:09.077Z,68.72
2023-01-29T05:56:12.203Z,68.42
2023-01-29T06:00:16.668Z,68.20
2023-01-29T06:04:19.850Z,67.93
2023-01-29T06:08:24.285Z,68.06
2023-01-29T06:12:28.451Z,68.08
2023-01-29T06:16:31.493Z,67.54
2023-01-29T06:20:34.565Z,67.74
2023-01-29T06:24:39.084Z,67.60
2023-01-29T06:28:42.623Z,67.80
2023-01-29T06:32:45.608Z,67.66
2023-01-29T06:36:48.802Z,68.36
2023-01-29T06:40:53.832Z,68.65
2023-01-29T06:44:56.864Z,68.37
2023-01-29T06:49:01.282Z,68.45
2023-01-29T06:53:04.342Z,68.67
2023-01-29T06:57:08.724Z,68.57
2023-01-29T07:01:25.530Z,68.49
2023-01-29T07:05:36.444Z,68.39
2023-01-29T07:09:39.799Z,68.42
2023-01-29T07:13:44.391Z,68.49
2023-01-29T07:17:57.359Z,68.36
2023-01-29T07:22:02.424Z,68.18
2023-01-29T07:26:06.953Z,68.68
2023-01-29T07:30:12.862Z,68.91
2023-01-29T07:34:15.904Z,68.83
2023-01-29T07:38:19.094Z,68.38
2023-01-29T07:42:22.198Z,68.83
2023-01-29T07:46:26.578Z,68.99
2023-01-29T07:50:29.602Z,68.48
2023-01-29T07:54:32.752Z,68.18
2023-01-29T07:58:36.815Z,67.95
2023-01-29T08:02:41.441Z,67.79
2023-01-29T08:06:44.490Z,67.70
2023-01-29T08:10:47.517Z,67.94
2023-01-29T08:14:51.315Z,67.89
2023-01-29T08:18:55.679Z,68.32
2023-01-29T08:23:02.535Z,67.90
2023-01-29T08:27:05.535Z,67.95
2023-01-29T08:31:14.941Z,67.41
2023-01-29T08:35:19.677Z,67.47
2023-01-29T08:39:23.151Z,67.35
2023-01-29T08:43:26.163Z,67.09
2023-01-29T08:47:29.711Z,67.38
2023-01-29T08:51:34.107Z,67.28
2023-01-29T08:55:38.324Z,66.02
2023-01-29T08:59:41.337Z,65.50
2023-01-29T09:03:44.804Z,65.88
2023-01-29T09:07:49.189Z,66.53
2023-01-29T09:11:52.247Z,66.41
2023-01-29T09:15:56.110Z,66.57
2023-01-29T09:19:59.935Z,66.78
2023-01-29T09:24:04.508Z,66.21
2023-01-29T09:28:07.515Z,66.01
2023-01-29T09:32:10.498Z,65.82
2023-01-29T09:36:14.591Z,65.98
2023-01-29T09:40:27.014Z,65.41
2023-01-29T09:44:50.770Z,64.33
2023-01-29T09:49:02.568Z,63.95
2023-01-29T09:53:16.297Z,64.35
2023-01-29T09:57:26.276Z,63.95
2023-01-29T10:01:36.181Z,64.91
2023-01-29T10:05:55.902Z,65.11
2023-01-29T10:10:11.557Z,65.47
2023-01-29T10:14:25.164Z,65.78
2023-01-29T10:18:43.203Z,64.99
2023-01-29T10:22:59.550Z,64.86
2023-01-29T10:27:04.359Z,65.02
2023-01-29T10:31:13.755Z,65.03
2023-01-29T10:35:23.935Z,65.12
2023-01-29T10:39:28.154Z,65.25
2023-01-29T10:43:40.275Z,64.62
2023-01-29T10:48:33.940Z,65.06
2023-01-29T10:52:51.020Z,64.95
2023-01-29T10:57:06.620Z,65.00
2023-01-29T11:01:10.486Z,65.64
2023-01-29T11:05:24.353Z,65.03
2023-01-29T11:09:33.218Z,64.44
2023-01-29T11:13:41.756Z,65.12
2023-01-29T11:18:03.669Z,65.15
2023-01-29T11:22:15.819Z,65.32
2023-01-29T11:26:22.361Z,64.92
2023-01-29T11:30:28.314Z,64.88
2023-01-29T11:34:32.260Z,65.04
2023-01-29T11:38:36.645Z,64.72
2023-01-29T11:42:39.659Z,64.31
2023-01-29T11:46:42.965Z,64.41
2023-01-29T11:50:53.018Z,64.95
2023-01-29T11:55:02.276Z,64.69
2023-01-29T11:59:05.912Z,64.84
2023-01-29T12:03:16.698Z,64.34
2023-01-29T12:07:20.720Z,64.35
2023-01-29T12:11:30.725Z,64.33
2023-01-29T12:15:35.319Z,64.15
2023-01-29T12:19:45.564Z,63.92
2023-01-29T12:23:56.197Z,63.87
2023-01-29T12:28:05.633Z,64.28
2023-01-29T12:32:21.114Z,63.33
2023-01-29T12:36:30.052Z,63.46
2023-01-29T12:40:43.627Z,63.74
2023-01-29T12:44:51.816Z,64.29
2023-01-29T12:48:57.847Z,63.50
2023-01-29T12:53:06.083Z,63.67
2023-01-29T12:57:19.247Z,63.48
2023-01-29T13:01:31.262Z,63.56
2023-01-29T13:05:39.855Z,62.75
2023-01-29T13:09:47.495Z,63.07
2023-01-29T13:13:55.170Z,63.38
2023-01-29T13:18:03.916Z,64.08
2023-01-29T13:22:18.524Z,63.51
2023-01-29T13:26:23.305Z,63.70
2023-01-29T13:30:31.302Z,64.25
2023-01-29T13:34:38.825Z,63.18
2023-01-29T13:38:46.996Z,63.64
2023-01-29T13:42:53.203Z,63.53
2023-01-29T13:46:59.460Z,63.98
2023-01-29T13:51:05.852Z,63.73
2023-01-29T13:55:22.284Z,63.05
2023-01-29T13:59:46.220Z,63.99
2023-01-29T14:04:04.768Z,63.82
2023-01-29T14:08:38.941Z,64.01
2023-01-29T14:12:43.897Z,64.59
2023-01-29T14:16:47.421Z,64.46
2023-01-29T14:20:59.637Z,64.25
2023-01-29T14:25:06.370Z,64.46
2023-01-29T14:29:29.059Z,63.98
2023-01-29T14:33:41.163Z,64.40
2023-01-29T14:37:50.790Z,64.13
2023-01-29T14:41:54.136Z,64.38
2023-01-29T14:46:35.750Z,64.69
2023-01-29T14:50:55.191Z,64.82
2023-01-29T14:55:04.063Z,65.16
2023-01-29T14:59:17.782Z,65.23
2023-01-29T15:03:27.936Z,65.54
2023-01-29T15:07:35.977Z,65.77
2023-01-29T15:11:49.858Z,65.82
2023-01-29T15:15:56.227Z,65.94
2023-01-29T15:19:59.309Z,65.71
2023-01-29T15:24:06.667Z,65.79
2023-01-29T15:28:12.633Z,66.08
2023-01-29T15:32:28.459Z,66.25
2023-01-29T15:36:33.190Z,66.39
2023-01-29T15:40:36.205Z,66.55
2023-01-29T15:44:46.499Z,66.28
2023-01-29T15:48:50.969Z,66.23
2023-01-29T15:52:56.131Z,66.52
2023-01-29T15:57:00.319Z,66.46
2023-01-29T16:01:05.260Z,66.63
2023-01-29T16:05:14.281Z,66.38
2023-01-29T16:09:23.609Z,66.87
2023-01-29T16:13:30.036Z,67.01
2023-01-29T16:17:37.698Z,66.97
2023-01-29T16:21:45.984Z,67.60
2023-01-29T16:25:50.738Z,67.36
2023-01-29T16:29:54.248Z,67.25
2023-01-29T16:34:00.215Z,67.36
2023-01-29T16:38:09.135Z,67.49
2023-01-29T16:42:29.966Z,67.39
2023-01-29T16:46:35.377Z,67.53
2023-01-29T16:50:53.921Z,67.47
2023-01-29T16:55:20.620Z,66.82
2023-01-29T16:59:33.686Z,66.63
2023-01-29T17:03:38.361Z,66.85
2023-01-29T17:07:46.986Z,66.90
2023-01-29T17:11:56.776Z,66.99
2023-01-29T17:16:02.801Z,67.22
2023-01-29T17:20:14.825Z,67.39
2023-01-29T17:24:19.475Z,67.41
2023-01-29T17:28:22.521Z,67.24
2023-01-29T17:32:45.243Z,67.30
2023-01-29T17:36:50.416Z,67.33
2023-01-29T17:40:57.445Z,67.21
2023-01-29T17:45:00.488Z,67.40
2023-01-29T17:49:04.507Z,67.47
2023-01-29T17:53:07.639Z,67.08
2023-01-29T17:57:15.525Z,67.12
2023-01-29T18:01:18.687Z,67.29
2023-01-29T18:05:21.739Z,67.40
2023-01-29T18:09:24.987Z,67.23
2023-01-29T18:13:29.757Z,67.13
2023-01-29T18:17:32.783Z,66.88
2023-01-29T18:21:35.822Z,67.05
2023-01-29T18:25:39.840Z,67.11
2023-01-29T18:29:44.207Z,67.17
2023-01-29T18:33:47.450Z,67.26
2023-01-29T18:37:51.443Z,67.05
2023-01-29T18:41:54.439Z,67.34
2023-01-29T18:46:00.310Z,67.40
2023-01-29T18:50:03.375Z,67.44
2023-01-29T18:54:06.499Z,67.43
2023-01-29T18:58:26.655Z,67.66
2023-01-29T19:02:34.398Z,67.51
2023-01-29T19:06:38.041Z,67.66
2023-01-29T19:10:41.587Z,67.85
2023-01-29T19:14:44.686Z,67.85
2023-01-29T19:18:49.111Z,68.13
2023-01-29T19:22:52.243Z,68.10
2023-01-29T19:26:55.791Z,68.08
2023-01-29T19:30:59.099Z,67.93
2023-01-29T19:35:03.662Z,68.02
2023-01-29T19:39:06.880Z,68.08
2023-01-29T19:43:09.929Z,67.66
2023-01-29T19:47:13.069Z,67.91
2023-01-29T19:51:17.502Z,68.05
2023-01-29T19:55:21.664Z,67.92
2023-01-29T19:59:24.763Z,68.16
2023-01-29T20:03:29.308Z,67.91
2023-01-29T20:07:33.712Z,68.12
2023-01-29T20:11:36.753Z,68.32
2023-01-29T20:15:39.822Z,68.10
2023-01-29T20:19:42.837Z,68.37
2023-01-29T20:23:47.339Z,68.47
2023-01-29T20:27:50.560Z,68.28
2023-01-29T20:31:53.628Z,68.55
2023-01-29T20:35:57.391Z,68.49
2023-01-29T20:40:01.787Z,68.54
2023-01-29T20:44:04.864Z,68.47
2023-01-29T20:48:08.851Z,68.30
2023-01-29T20:52:12.512Z,68.25
2023-01-29T20:56:18.299Z,68.30
2023-01-29T21:00:27.584Z,68.24
2023-01-29T21:04:31.378Z,68.58
2023-01-29T21:08:35.358Z,68.82
2023-01-29T21:12:39.753Z,68.72
2023-01-29T21:16:42.797Z,68.57
2023-01-29T21:20:46.007Z,68.59
2023-01-29T21:24:49.037Z,68.66
2023-01-29T21:28:53.977Z,68.67
2023-01-29T21:32:57.097Z,68.86
2023-01-29T21:37:00.160Z,69.03
2023-01-29T21:41:05.293Z,68.93
2023-01-29T21:45:11.096Z,69.13
2023-01-29T21:49:14.093Z,69.00
2023-01-29T21:53:17.227Z,68.98
2023-01-29T21:57:20.296Z,68.95
2023-01-29T22:01:37.423Z,69.32
2023-01-29T22:05:41.653Z,69.33
2023-01-29T22:09:44.687Z,69.86
2023-01-29T22:13:48.062Z,69.90
2023-01-29T22:17:52.739Z,70.10
2023-01-29T22:21:56.258Z,70.16
2023-01-29T22:26:03.563Z,70.30
2023-01-29T22:30:08.103Z,70.18
2023-01-29T22:34:13.419Z,70.23
2023-01-29T22:38:16.476Z,70.09
2023-01-29T22:42:20.255Z,70.13
2023-01-29T22:46:23.296Z,70.45
2023-01-29T22:50:27.860Z,70.77
2023-01-29T22:54:30.914Z,70.59
2023-01-29T22:58:34.153Z,70.83
2023-01-29T23:02:37.403Z,70.98
2023-01-29T23:06:41.970Z,70.89
2023-01-29T23:10:45.149Z,71.34
2023-01-29T23:14:48.192Z,71.62
2023-01-29T23:18:53.402Z,71.76
2023-01-29T23:22:57.882Z,72.06
2023-01-29T23:27:15.827Z,72.25
2023-01-29T23:31:19.282Z,72.33
2023-01-29T23:35:22.368Z,72.52
2023-01-29T23:39:26.793Z,72.54
2023-01-29T23:43:30.603Z,72.54
2023-01-29T23:47:33.655Z,72.66
2023-01-29T23:51:36.731Z,72.78
2023-01-29T23:55:41.457Z,72.41
2023-01-29T23:59:44.541Z,73.08
